createdAt,value
2023-06-23T00:00:24.146Z,59.72
2023-06-23T00:02:51.368Z,59.38
2023-06-23T00:05:18.671Z,59.60
2023-06-23T00:07:45.732Z,59.55
2023-06-23T00:10:12.853Z,59.81
2023-06-23T00:12:44.014Z,59.66
2023-06-23T00:15:13.006Z,59.67
2023-06-23T00:17:42.097Z,59.76
2023-06-23T00:20:14.538Z,59.67
2023-06-23T00:22:42.630Z,59.74
2023-06-23T00:25:11.199Z,59.70
2023-06-23T00:27:43.519Z,59.56
2023-06-23T00:30:12.429Z,59.48
2023-06-23T00:32:40.825Z,59.97
2023-06-23T00:35:12.085Z,59.36
2023-06-23T00:37:39.204Z,59.80
2023-06-23T00:40:12.124Z,59.72
2023-06-23T00:42:50.319Z,59.62
2023-06-23T00:45:17.366Z,59.88
2023-06-23T00:47:46.264Z,59.88
2023-06-23T00:50:20.680Z,59.88
2023-06-23T00:52:51.931Z,60.09
2023-06-23T00:55:23.208Z,59.84
2023-06-23T00:57:51.718Z,59.89
2023-06-23T01:00:20.054Z,59.75
2023-06-23T01:02:50.872Z,60.01
2023-06-23T01:05:21.850Z,59.77
2023-06-23T01:08:28.113Z,59.83
2023-06-23T01:10:58.897Z,59.96
2023-06-23T01:13:55.175Z,60.08
2023-06-23T01:16:32.937Z,60.18
2023-06-23T01:19:30.603Z,60.18
2023-06-23T01:22:18.604Z,60.15
2023-06-23T01:24:48.642Z,60.04
2023-06-23T01:27:35.004Z,60.38
2023-06-23T01:30:07.654Z,60.26
2023-06-23T01:32:52.531Z,60.11
2023-06-23T01:35:25.581Z,60.21
2023-06-23T01:37:59.244Z,60.38
2023-06-23T01:40:27.386Z,60.31
2023-06-23T01:42:58.700Z,60.46
2023-06-23T01:45:30.503Z,60.37
2023-06-23T01:48:02.764Z,60.28
2023-06-23T01:50:32.961Z,60.27
2023-06-23T01:53:02.463Z,60.39
2023-06-23T01:55:32.277Z,60.08
2023-06-23T01:58:02.199Z,60.19
2023-06-23T02:00:30.115Z,60.34
2023-06-23T02:02:59.088Z,60.54
2023-06-23T02:05:28.654Z,60.21
2023-06-23T02:07:58.739Z,60.35
2023-06-23T02:10:29.107Z,60.23
2023-06-23T02:12:58.259Z,60.42
2023-06-23T02:15:28.121Z,60.48
2023-06-23T02:17:57.472Z,60.21
2023-06-23T02:20:25.159Z,60.29
2023-06-23T02:22:54.278Z,60.53
2023-06-23T02:25:23.546Z,60.57
2023-06-23T02:27:51.869Z,60.30
2023-06-23T02:30:19.713Z,60.33
2023-06-23T02:32:50.004Z,60.15
2023-06-23T02:35:17.711Z,60.57
2023-06-23T02:37:54.409Z,60.37
2023-06-23T02:40:24.779Z,60.35
2023-06-23T02:43:01.373Z,60.33
2023-06-23T02:45:35.247Z,60.47
2023-06-23T02:48:04.643Z,60.44
2023-06-23T02:50:35.774Z,60.59
2023-06-23T02:53:10.361Z,60.52
2023-06-23T02:55:46.197Z,60.45
2023-06-23T02:58:17.171Z,60.48
2023-06-23T03:00:44.579Z,60.15
2023-06-23T03:03:16.372Z,60.26
2023-06-23T03:05:44.787Z,60.43
2023-06-23T03:08:12.337Z,60.26
2023-06-23T03:10:39.358Z,60.32
2023-06-23T03:13:06.396Z,60.39
2023-06-23T03:15:34.096Z,60.38
2023-06-23T03:18:26.397Z,60.42
2023-06-23T03:20:56.577Z,60.32
2023-06-23T03:23:26.897Z,60.32
2023-06-23T03:25:55.250Z,60.32
2023-06-23T03:28:28.952Z,60.35
2023-06-23T03:31:04.529Z,60.34
2023-06-23T03:33:35.224Z,60.35
2023-06-23T03:36:16.572Z,60.59
2023-06-23T03:38:58.759Z,60.39
2023-06-23T03:41:29.777Z,60.63
2023-06-23T03:43:59.535Z,60.35
2023-06-23T03:46:32.846Z,60.28
2023-06-23T03:49:03.287Z,60.48
2023-06-23T03:51:34.094Z,60.73
2023-06-23T03:54:03.640Z,60.19
2023-06-23T03:56:34.005Z,60.26
2023-06-23T03:59:03.734Z,60.20
2023-06-23T04:01:34.492Z,60.16
2023-06-23T04:04:04.297Z,60.34
2023-06-23T04:06:32.707Z,60.32
2023-06-23T04:09:02.966Z,60.45
2023-06-23T04:11:31.933Z,60.38
2023-06-23T04:14:00.770Z,60.42
2023-06-23T04:16:28.441Z,60.78
2023-06-23T04:18:57.460Z,60.43
2023-06-23T04:21:25.588Z,60.47
2023-06-23T04:23:54.801Z,60.53
2023-06-23T04:26:21.788Z,60.43
2023-06-23T04:28:53.893Z,58.53
2023-06-23T04:31:23.112Z,60.00
2023-06-23T04:33:50.233Z,59.97
2023-06-23T04:36:19.709Z,60.30
2023-06-23T04:39:00.862Z,60.15
2023-06-23T04:41:28.731Z,60.09
2023-06-23T04:44:00.149Z,60.05
2023-06-23T04:46:31.215Z,60.44
2023-06-23T04:49:03.844Z,60.86
2023-06-23T04:51:37.015Z,60.68
2023-06-23T04:54:12.251Z,60.53
2023-06-23T04:56:41.938Z,60.87
2023-06-23T04:59:12.279Z,60.89
2023-06-23T05:01:40.059Z,61.11
2023-06-23T05:04:09.387Z,61.30
2023-06-23T05:06:41.119Z,61.46
2023-06-23T05:09:10.121Z,61.96
2023-06-23T05:11:37.686Z,62.31
2023-06-23T05:14:08.304Z,62.02
2023-06-23T05:16:37.493Z,62.09
2023-06-23T05:19:10.134Z,62.44
2023-06-23T05:21:37.987Z,62.32
2023-06-23T05:24:10.450Z,62.29
2023-06-23T05:26:40.487Z,62.18
2023-06-23T05:29:09.813Z,62.09
2023-06-23T05:31:42.444Z,61.78
2023-06-23T05:34:13.223Z,61.70
2023-06-23T05:36:41.635Z,61.94
2023-06-23T05:39:11.690Z,61.71
2023-06-23T05:41:38.846Z,61.48
2023-06-23T05:44:06.035Z,61.28
2023-06-23T05:46:36.567Z,61.36
2023-06-23T05:49:18.582Z,61.37
2023-06-23T05:51:46.916Z,61.13
2023-06-23T05:54:16.256Z,61.14
2023-06-23T05:56:52.073Z,61.27
2023-06-23T05:59:43.888Z,61.51
2023-06-23T06:02:20.053Z,61.27
2023-06-23T06:04:52.834Z,61.53
2023-06-23T06:07:21.785Z,61.09
2023-06-23T06:09:50.908Z,61.23
2023-06-23T06:12:19.026Z,61.40
2023-06-23T06:14:47.996Z,61.82
2023-06-23T06:17:17.696Z,61.71
2023-06-23T06:19:46.997Z,61.85
2023-06-23T06:22:17.708Z,61.84
2023-06-23T06:24:47.483Z,62.01
2023-06-23T06:27:16.529Z,61.69
2023-06-23T06:29:45.167Z,61.52
2023-06-23T06:32:14.402Z,59.55
2023-06-23T06:34:44.919Z,58.96
2023-06-23T06:37:13.252Z,59.89
2023-06-23T06:39:42.829Z,60.45
2023-06-23T06:42:10.371Z,61.59
2023-06-23T06:44:37.858Z,62.04
2023-06-23T06:47:08.057Z,62.49
2023-06-23T06:49:36.118Z,62.22
2023-06-23T06:52:04.631Z,63.19
2023-06-23T06:54:31.775Z,63.13
2023-06-23T06:56:59.726Z,62.90
2023-06-23T06:59:26.966Z,62.82
2023-06-23T07:01:54.807Z,62.79
2023-06-23T07:04:22.956Z,62.83
2023-06-23T07:06:54.852Z,62.90
2023-06-23T07:09:22.310Z,62.37
2023-06-23T07:11:50.586Z,62.33
2023-06-23T07:14:18.075Z,62.46
2023-06-23T07:16:45.089Z,62.52
2023-06-23T07:19:12.533Z,62.72
2023-06-23T07:21:39.644Z,62.54
2023-06-23T07:24:07.210Z,62.52
2023-06-23T07:26:35.134Z,62.37
2023-06-23T07:29:02.219Z,62.60
2023-06-23T07:31:29.574Z,62.72
2023-06-23T07:33:57.885Z,62.96
2023-06-23T07:36:25.053Z,63.37
2023-06-23T07:38:52.147Z,62.73
2023-06-23T07:41:19.188Z,63.32
2023-06-23T07:43:46.449Z,63.13
2023-06-23T07:46:13.855Z,63.41
2023-06-23T07:48:41.366Z,63.13
2023-06-23T07:51:08.814Z,63.36
2023-06-23T07:53:36.213Z,63.28
2023-06-23T07:56:03.355Z,63.29
2023-06-23T07:58:30.411Z,63.22
2023-06-23T08:00:57.585Z,63.51
2023-06-23T08:03:24.956Z,63.28
2023-06-23T08:05:52.189Z,63.34
2023-06-23T08:08:19.352Z,63.48
2023-06-23T08:10:46.675Z,63.55
2023-06-23T08:13:13.979Z,63.80
2023-06-23T08:15:42.435Z,63.46
2023-06-23T08:18:10.063Z,63.54
2023-06-23T08:20:37.257Z,63.29
2023-06-23T08:23:04.308Z,63.33
2023-06-23T08:25:31.877Z,63.38
2023-06-23T08:27:59.244Z,63.31
2023-06-23T08:30:28.676Z,63.36
2023-06-23T08:32:56.112Z,63.34
2023-06-23T08:35:24.099Z,63.31
2023-06-23T08:37:51.402Z,63.16
2023-06-23T08:40:18.965Z,63.04
2023-06-23T08:42:46.882Z,63.06
2023-06-23T08:45:17.263Z,62.90
2023-06-23T08:47:53.293Z,63.13
2023-06-23T08:50:22.484Z,63.05
2023-06-23T08:52:49.926Z,63.01
2023-06-23T08:55:17.064Z,63.15
2023-06-23T08:57:44.253Z,63.09
2023-06-23T09:00:12.122Z,63.33
2023-06-23T09:02:39.532Z,62.94
2023-06-23T09:05:06.794Z,63.10
2023-06-23T09:07:34.117Z,62.91
2023-06-23T09:10:01.970Z,63.02
2023-06-23T09:12:29.258Z,62.99
2023-06-23T09:15:00.175Z,62.79
2023-06-23T09:17:28.867Z,63.31
2023-06-23T09:19:56.753Z,63.18
2023-06-23T09:22:25.266Z,63.26
2023-06-23T09:24:52.336Z,63.02
2023-06-23T09:27:19.604Z,62.96
2023-06-23T09:30:01.077Z,62.79
2023-06-23T09:32:31.222Z,63.09
2023-06-23T09:34:58.672Z,63.03
2023-06-23T09:37:26.989Z,63.14
2023-06-23T09:39:57.409Z,63.20
2023-06-23T09:42:26.580Z,63.34
2023-06-23T09:44:53.815Z,63.36
2023-06-23T09:47:21.416Z,62.93
2023-06-23T09:49:50.386Z,62.96
2023-06-23T09:52:28.115Z,63.15
2023-06-23T09:54:56.869Z,63.03
2023-06-23T09:57:25.013Z,63.11
2023-06-23T09:59:54.192Z,63.17
2023-06-23T10:02:28.216Z,62.97
2023-06-23T10:05:08.220Z,62.89
2023-06-23T10:07:35.777Z,63.13
2023-06-23T10:10:21.556Z,63.14
2023-06-23T10:12:53.874Z,63.13
2023-06-23T10:15:21.570Z,62.87
2023-06-23T10:17:49.511Z,63.03
2023-06-23T10:20:17.215Z,62.83
2023-06-23T10:22:46.202Z,63.09
2023-06-23T10:25:13.539Z,62.70
2023-06-23T10:27:43.465Z,62.90
2023-06-23T10:30:16.472Z,63.04
2023-06-23T10:32:49.346Z,62.96
2023-06-23T10:35:21.554Z,63.11
2023-06-23T10:37:50.496Z,63.13
2023-06-23T10:40:23.824Z,62.94
2023-06-23T10:42:52.271Z,62.97
2023-06-23T10:45:19.635Z,63.00
2023-06-23T10:47:49.708Z,62.97
2023-06-23T10:50:17.245Z,62.72
2023-06-23T10:52:44.488Z,62.79
2023-06-23T10:55:38.274Z,62.62
2023-06-23T10:58:18.051Z,62.77
2023-06-23T11:00:55.250Z,62.79
2023-06-23T11:03:37.515Z,62.36
2023-06-23T11:06:09.611Z,62.17
2023-06-23T11:08:41.883Z,62.50
2023-06-23T11:11:19.534Z,62.30
2023-06-23T11:13:48.537Z,61.96
2023-06-23T11:16:33.045Z,61.85
2023-06-23T11:19:02.444Z,61.53
2023-06-23T11:21:39.121Z,61.79
2023-06-23T11:24:16.238Z,61.83
2023-06-23T11:26:56.909Z,61.90
2023-06-23T11:29:24.735Z,61.36
2023-06-23T11:32:08.305Z,61.60
2023-06-23T11:35:08.677Z,61.93
2023-06-23T11:37:36.279Z,61.46
2023-06-23T11:40:05.061Z,61.78
2023-06-23T11:42:32.413Z,62.21
2023-06-23T11:44:59.885Z,62.05
2023-06-23T11:47:31.117Z,61.83
2023-06-23T11:50:03.950Z,61.33
2023-06-23T11:52:31.588Z,61.72
2023-06-23T11:54:58.673Z,61.53
2023-06-23T11:57:26.178Z,61.55
2023-06-23T11:59:54.405Z,61.71
2023-06-23T12:02:22.237Z,61.53
2023-06-23T12:04:52.762Z,61.53
2023-06-23T12:07:21.145Z,61.43
2023-06-23T12:09:48.295Z,61.46
2023-06-23T12:12:17.527Z,61.47
2023-06-23T12:14:45.334Z,61.45
2023-06-23T12:17:14.254Z,61.22
2023-06-23T12:19:43.239Z,60.98
2023-06-23T12:22:19.734Z,61.33
2023-06-23T12:24:47.870Z,60.94
2023-06-23T12:27:15.233Z,61.14
2023-06-23T12:29:42.453Z,61.04
2023-06-23T12:32:10.538Z,60.62
2023-06-23T12:34:43.942Z,60.86
2023-06-23T12:37:18.988Z,60.80
2023-06-23T12:39:53.940Z,61.01
2023-06-23T12:42:22.009Z,61.20
2023-06-23T12:44:50.562Z,61.08
2023-06-23T12:47:19.675Z,61.13
2023-06-23T12:49:46.834Z,60.78
2023-06-23T12:52:13.962Z,60.79
2023-06-23T12:54:40.989Z,60.84
2023-06-23T12:57:10.926Z,60.67
2023-06-23T12:59:37.973Z,60.86
2023-06-23T13:02:05.353Z,60.83
2023-06-23T13:04:32.437Z,61.16
2023-06-23T13:06:59.725Z,60.78
2023-06-23T13:09:26.847Z,60.60
2023-06-23T13:11:54.106Z,60.65
2023-06-23T13:14:21.614Z,60.79
2023-06-23T13:16:49.330Z,60.56
2023-06-23T13:19:17.250Z,61.28
2023-06-23T13:21:47.547Z,60.77
2023-06-23T13:24:14.995Z,60.61
2023-06-23T13:26:45.000Z,60.65
2023-06-23T13:29:12.622Z,60.81
2023-06-23T13:31:40.054Z,60.74
2023-06-23T13:34:07.243Z,60.59
2023-06-23T13:36:34.517Z,60.79
2023-06-23T13:39:02.289Z,60.76
2023-06-23T13:41:29.502Z,60.42
2023-06-23T13:43:56.679Z,60.70
2023-06-23T13:46:24.081Z,60.91
2023-06-23T13:48:51.952Z,60.94
2023-06-23T13:51:19.218Z,60.74
2023-06-23T13:53:46.421Z,60.79
2023-06-23T13:56:14.382Z,60.97
2023-06-23T13:58:41.694Z,61.24
2023-06-23T14:01:08.944Z,61.46
2023-06-23T14:03:37.417Z,61.28
2023-06-23T14:06:05.722Z,61.26
2023-06-23T14:08:35.805Z,61.37
2023-06-23T14:11:03.438Z,61.59
2023-06-23T14:13:30.648Z,61.47
2023-06-23T14:15:58.124Z,61.47
2023-06-23T14:18:25.732Z,61.52
2023-06-23T14:20:53.009Z,61.56
2023-06-23T14:23:20.219Z,61.41
2023-06-23T14:25:47.362Z,61.36
2023-06-23T14:28:16.147Z,61.24
2023-06-23T14:30:43.381Z,61.22
2023-06-23T14:33:10.949Z,60.67
2023-06-23T14:35:38.330Z,61.01
2023-06-23T14:38:07.343Z,60.75
2023-06-23T14:40:34.634Z,60.68
2023-06-23T14:43:02.354Z,60.89
2023-06-23T14:45:36.498Z,60.68
2023-06-23T14:48:04.404Z,60.67
2023-06-23T14:50:31.633Z,60.90
2023-06-23T14:52:59.755Z,61.12
2023-06-23T14:55:27.213Z,60.86
2023-06-23T14:57:54.655Z,60.86
2023-06-23T15:00:22.540Z,60.97
2023-06-23T15:02:49.934Z,61.15
2023-06-23T15:05:17.519Z,60.70
2023-06-23T15:07:44.838Z,60.29
2023-06-23T15:10:12.082Z,60.88
2023-06-23T15:12:39.131Z,60.66
2023-06-23T15:15:06.718Z,60.47
2023-06-23T15:17:34.124Z,60.61
2023-06-23T15:20:01.366Z,60.29
2023-06-23T15:22:28.808Z,60.83
2023-06-23T15:24:55.883Z,60.59
2023-06-23T15:27:23.193Z,60.54
2023-06-23T15:29:50.384Z,60.80
2023-06-23T15:32:17.538Z,60.81
2023-06-23T15:34:44.876Z,60.61
2023-06-23T15:37:12.359Z,60.72
2023-06-23T15:39:42.712Z,61.70
2023-06-23T15:42:12.952Z,61.73
2023-06-23T15:44:43.251Z,61.70
2023-06-23T15:47:10.736Z,62.01
2023-06-23T15:49:38.312Z,61.76
2023-06-23T15:52:07.088Z,62.14
2023-06-23T15:54:36.122Z,62.32
2023-06-23T15:57:03.761Z,62.73
2023-06-23T15:59:30.830Z,62.43
2023-06-23T16:01:57.974Z,62.02
2023-06-23T16:04:25.577Z,61.60
2023-06-23T16:06:52.770Z,61.88
2023-06-23T16:09:19.946Z,61.74
2023-06-23T16:11:46.939Z,61.62
2023-06-23T16:14:13.991Z,61.88
2023-06-23T16:16:42.614Z,61.83
2023-06-23T16:19:10.047Z,62.25
2023-06-23T16:21:37.371Z,62.55
2023-06-23T16:24:04.881Z,62.23
2023-06-23T16:26:32.022Z,62.74
2023-06-23T16:28:59.694Z,62.63
2023-06-23T16:31:26.974Z,63.09
2023-06-23T16:33:56.692Z,63.05
2023-06-23T16:36:25.916Z,62.89
2023-06-23T16:38:52.937Z,62.80
2023-06-23T16:41:20.292Z,62.66
2023-06-23T16:43:47.479Z,62.97
2023-06-23T16:46:14.769Z,63.02
2023-06-23T16:48:41.967Z,63.23
2023-06-23T16:51:09.307Z,62.86
2023-06-23T16:53:36.721Z,62.69
2023-06-23T16:56:06.860Z,62.70
2023-06-23T16:58:34.982Z,62.95
2023-06-23T17:01:02.592Z,63.11
2023-06-23T17:03:29.868Z,63.03
2023-06-23T17:05:57.046Z,63.38
2023-06-23T17:08:24.271Z,63.29
2023-06-23T17:10:51.452Z,62.87
2023-06-23T17:13:18.498Z,63.04
2023-06-23T17:15:45.894Z,62.97
2023-06-23T17:18:12.915Z,63.01
2023-06-23T17:20:39.916Z,62.78
2023-06-23T17:23:07.271Z,63.06
2023-06-23T17:25:34.539Z,63.75
2023-06-23T17:28:02.063Z,63.96
2023-06-23T17:30:29.227Z,64.03
2023-06-23T17:32:56.547Z,64.41
2023-06-23T17:35:23.691Z,64.65
2023-06-23T17:37:50.753Z,64.94
2023-06-23T17:40:21.612Z,64.40
2023-06-23T17:42:48.839Z,64.67
2023-06-23T17:45:16.004Z,64.79
2023-06-23T17:47:43.443Z,65.03
2023-06-23T17:50:11.636Z,65.22
2023-06-23T17:52:38.869Z,65.33
2023-06-23T17:55:06.680Z,65.17
2023-06-23T17:57:33.771Z,65.52
2023-06-23T18:00:01.166Z,65.40
2023-06-23T18:02:29.229Z,65.70
2023-06-23T18:04:56.453Z,65.11
2023-06-23T18:07:24.121Z,64.73
2023-06-23T18:09:51.486Z,64.20
2023-06-23T18:12:18.837Z,64.31
2023-06-23T18:14:46.122Z,63.92
2023-06-23T18:17:13.775Z,63.74
2023-06-23T18:19:42.157Z,63.91
2023-06-23T18:22:09.316Z,64.48
2023-06-23T18:24:36.488Z,64.63
2023-06-23T18:27:04.184Z,64.95
2023-06-23T18:29:31.371Z,64.50
2023-06-23T18:32:08.297Z,64.25
2023-06-23T18:34:36.519Z,64.26
2023-06-23T18:37:03.748Z,64.40
2023-06-23T18:39:31.055Z,64.55
2023-06-23T18:41:58.943Z,64.24
2023-06-23T18:44:26.099Z,64.77
2023-06-23T18:46:53.339Z,64.47
2023-06-23T18:49:20.583Z,64.58
2023-06-23T18:51:48.119Z,64.94
2023-06-23T18:54:15.244Z,65.03
2023-06-23T18:56:42.503Z,64.77
2023-06-23T18:59:09.834Z,64.88
2023-06-23T19:01:37.200Z,64.24
2023-06-23T19:04:04.673Z,64.70
2023-06-23T19:06:31.862Z,64.71
2023-06-23T19:09:04.126Z,64.73
2023-06-23T19:11:32.553Z,64.17
2023-06-23T19:14:03.147Z,64.30
2023-06-23T19:16:31.330Z,64.49
2023-06-23T19:18:59.268Z,64.46
2023-06-23T19:21:27.019Z,64.53
2023-06-23T19:23:55.517Z,64.72
2023-06-23T19:26:22.779Z,64.89
2023-06-23T19:28:50.356Z,64.29
2023-06-23T19:31:17.537Z,64.15
2023-06-23T19:33:44.783Z,64.41
2023-06-23T19:36:12.314Z,64.53
2023-06-23T19:38:39.742Z,64.12
2023-06-23T19:41:07.130Z,64.23
2023-06-23T19:43:34.410Z,64.52
2023-06-23T19:46:03.506Z,64.20
2023-06-23T19:48:30.901Z,64.34
2023-06-23T19:50:58.096Z,64.81
2023-06-23T19:53:25.403Z,65.10
2023-06-23T19:55:55.730Z,64.75
2023-06-23T19:58:23.162Z,65.63
2023-06-23T20:00:50.899Z,65.96
2023-06-23T20:03:18.417Z,65.97
2023-06-23T20:05:45.847Z,66.31
2023-06-23T20:08:13.235Z,65.98
2023-06-23T20:10:40.844Z,66.05
2023-06-23T20:13:08.737Z,66.32
2023-06-23T20:15:36.463Z,66.03
2023-06-23T20:18:04.040Z,66.81
2023-06-23T20:20:31.679Z,66.12
2023-06-23T20:22:59.426Z,65.76
2023-06-23T20:25:27.057Z,65.36
2023-06-23T20:27:54.273Z,65.44
2023-06-23T20:30:21.615Z,65.81
2023-06-23T20:32:48.897Z,65.38
2023-06-23T20:35:16.505Z,65.10
2023-06-23T20:37:44.015Z,65.10
2023-06-23T20:40:14.677Z,65.33
2023-06-23T20:42:42.172Z,65.09
2023-06-23T20:45:15.294Z,64.67
2023-06-23T20:47:45.653Z,64.54
2023-06-23T20:50:13.428Z,64.43
2023-06-23T20:52:41.217Z,64.70
2023-06-23T20:55:09.094Z,64.42
2023-06-23T20:57:37.616Z,64.16
2023-06-23T21:00:05.919Z,64.06
2023-06-23T21:02:33.279Z,63.84
2023-06-23T21:05:01.021Z,64.17
2023-06-23T21:07:29.044Z,63.79
2023-06-23T21:09:56.463Z,63.59
2023-06-23T21:12:25.151Z,64.05
2023-06-23T21:15:04.648Z,63.78
2023-06-23T21:17:34.443Z,63.79
2023-06-23T21:20:02.052Z,64.13
2023-06-23T21:22:29.817Z,64.79
2023-06-23T21:24:57.084Z,63.66
2023-06-23T21:27:25.780Z,63.44
2023-06-23T21:29:53.506Z,63.55
2023-06-23T21:32:20.831Z,63.61
2023-06-23T21:34:48.333Z,64.33
2023-06-23T21:37:16.895Z,64.01
2023-06-23T21:39:44.333Z,63.75
2023-06-23T21:42:11.624Z,63.72
2023-06-23T21:44:38.997Z,63.11
2023-06-23T21:47:06.807Z,63.26
2023-06-23T21:49:34.274Z,63.33
2023-06-23T21:52:01.754Z,63.78
2023-06-23T21:54:29.071Z,63.46
2023-06-23T21:56:56.291Z,63.68
2023-06-23T21:59:23.765Z,63.64
2023-06-23T22:01:51.629Z,63.89
2023-06-23T22:04:18.780Z,64.03
2023-06-23T22:06:46.242Z,63.96
2023-06-23T22:09:13.571Z,64.02
2023-06-23T22:11:40.747Z,63.79
2023-06-23T22:14:07.905Z,63.71
2023-06-23T22:16:35.322Z,64.06
2023-06-23T22:19:02.537Z,64.07
2023-06-23T22:21:29.981Z,63.84
2023-06-23T22:23:57.327Z,63.74
2023-06-23T22:26:24.607Z,63.68
2023-06-23T22:28:51.754Z,63.85
2023-06-23T22:31:19.079Z,63.97
2023-06-23T22:33:46.618Z,63.64
2023-06-23T22:36:13.979Z,63.99
2023-06-23T22:38:41.073Z,63.59
2023-06-23T22:41:08.555Z,63.68
2023-06-23T22:43:35.784Z,63.57
2023-06-23T22:46:03.172Z,63.55
2023-06-23T22:48:30.322Z,63.99
2023-06-23T22:50:57.530Z,63.43
2023-06-23T22:53:24.658Z,63.75
2023-06-23T22:55:52.221Z,63.78
2023-06-23T22:58:19.398Z,63.68
2023-06-23T23:00:46.452Z,63.73
2023-06-23T23:03:13.849Z,63.65
2023-06-23T23:05:42.314Z,63.81
2023-06-23T23:08:09.444Z,63.68
2023-06-23T23:10:37.396Z,63.72
2023-06-23T23:13:05.591Z,63.48
2023-06-23T23:15:32.770Z,63.92
2023-06-23T23:17:59.868Z,64.03
2023-06-23T23:20:27.003Z,63.88
2023-06-23T23:22:54.311Z,63.81
2023-06-23T23:25:22.408Z,63.83
2023-06-23T23:27:52.644Z,63.66
2023-06-23T23:30:20.056Z,63.43
2023-06-23T23:32:50.562Z,63.75
2023-06-23T23:35:18.128Z,63.86
2023-06-23T23:37:46.019Z,63.96
2023-06-23T23:40:14.420Z,63.50
2023-06-23T23:42:45.873Z,63.57
2023-06-23T23:45:13.951Z,64.00
2023-06-23T23:47:42.604Z,63.99
2023-06-23T23:50:10.271Z,63.74
2023-06-23T23:52:37.615Z,63.72
2023-06-23T23:55:05.078Z,63.85
2023-06-23T23:57:32.419Z,63.98
2023-06-23T23:59:59.480Z,63.81
